Time;durP1;ratioP1;P1;durP2;ratioP2;P2;SDS_P1;SDS_P2;PMS_P1;PMS_P2;Temp;Humidity;BMP_temperature;BMP_pressure;BME280_temperature;BME280_humidity;BME280_pressure;Samples;Min_cycle;Max_cycle;Signal;HPM_P1;HPM_P2
2023/03/01 00:01:20;;;;;;;36.60;23.25;;;;;;;-1.38;100.00;101577.34;5001778;28;20021;-70
2023/03/01 00:03:45;;;;;;;36.40;22.73;;;;;;;-1.44;100.00;101587.13;4985994;28;20025;-70
2023/03/01 00:06:11;;;;;;;39.22;24.15;;;;;;;-1.49;100.00;101596.91;5034358;28;20045;-70
2023/03/01 00:08:36;;;;;;;38.67;22.92;;;;;;;-1.53;100.00;101590.13;5017688;28;20030;-70
2023/03/01 00:11:10;;;;;;;37.83;24.73;;;;;;;-1.51;100.00;101596.22;5017735;28;20507;-70
2023/03/01 00:13:35;;;;;;;36.70;23.05;;;;;;;-1.59;100.00;101608.06;4998864;28;20418;-70
2023/03/01 00:16:05;;;;;;;44.60;26.45;;;;;;;-1.67;100.00;101600.84;5007610;28;20025;-71
2023/03/01 00:18:30;;;;;;;43.75;25.80;;;;;;;-1.72;100.00;101600.56;5001731;28;20030;-71
2023/03/01 00:20:56;;;;;;;44.55;27.45;;;;;;;-1.80;100.00;101597.91;5003139;28;20506;-71
2023/03/01 00:23:22;;;;;;;36.72;24.30;;;;;;;-1.80;100.00;101603.34;5001054;28;20045;-70
2023/03/01 00:25:47;;;;;;;42.47;25.77;;;;;;;-1.87;100.00;101607.84;5001236;28;20109;-70
2023/03/01 00:28:13;;;;;;;43.60;25.80;;;;;;;-1.91;100.00;101601.94;5001148;28;20038;-71
2023/03/01 00:30:38;;;;;;;45.38;27.15;;;;;;;-1.95;100.00;101614.25;4986975;28;20026;-70
2023/03/01 00:33:04;;;;;;;42.85;25.67;;;;;;;-1.95;100.00;101622.41;5018712;28;20037;-70
2023/03/01 00:35:33;;;;;;;44.65;26.27;;;;;;;-1.94;100.00;101626.81;5026950;28;20386;-70
2023/03/01 00:37:58;;;;;;;43.78;26.42;;;;;;;-1.99;100.00;101622.94;5019201;28;20029;-70
2023/03/01 00:40:25;;;;;;;41.05;25.88;;;;;;;-1.98;100.00;101616.47;5018795;28;20042;-71
2023/03/01 00:42:50;;;;;;;45.60;26.92;;;;;;;-2.02;100.00;101621.44;4970636;28;20053;-70
2023/03/01 00:45:16;;;;;;;45.17;27.75;;;;;;;-2.08;100.00;101609.41;5035679;28;20026;-70
2023/03/01 00:47:41;;;;;;;45.88;27.55;;;;;;;-2.10;100.00;101608.72;5002981;28;20053;-71
2023/03/01 00:50:08;;;;;;;47.47;28.73;;;;;;;-2.13;100.00;101608.25;5019614;28;20037;-71
2023/03/01 00:52:33;;;;;;;41.97;26.80;;;;;;;-2.15;100.00;101613.88;4997903;28;20061;-70
2023/03/01 00:54:58;;;;;;;42.63;26.38;;;;;;;-2.14;100.00;101615.59;5007558;28;20030;-70
2023/03/01 00:57:24;;;;;;;40.33;26.65;;;;;;;-2.13;100.00;101611.00;5017295;28;20497;-71
2023/03/01 00:59:49;;;;;;;44.50;26.77;;;;;;;-2.14;100.00;101604.69;4985911;28;20038;-70
2023/03/01 01:02:15;;;;;;;42.83;27.00;;;;;;;-2.16;100.00;101598.59;5017488;28;20026;-70
2023/03/01 01:04:40;;;;;;;40.17;25.48;;;;;;;-2.08;100.00;101605.84;5000497;28;20037;-70
2023/03/01 01:07:06;;;;;;;43.22;26.73;;;;;;;-2.17;100.00;101601.47;5016805;28;20368;-70
2023/03/01 01:09:31;;;;;;;48.42;28.10;;;;;;;-2.27;100.00;101604.47;4983579;28;20022;-70
2023/03/01 01:11:57;;;;;;;45.38;28.10;;;;;;;-2.29;100.00;101609.25;4983807;28;20037;-71
2023/03/01 01:14:22;;;;;;;45.58;27.35;;;;;;;-2.32;100.00;101613.16;5008066;28;20026;-71
2023/03/01 01:16:48;;;;;;;48.90;28.55;;;;;;;-2.33;100.00;101603.31;5028906;28;20037;-71
2023/03/01 01:19:13;;;;;;;46.83;28.65;;;;;;;-2.39;100.00;101603.22;5016907;28;20033;-70
2023/03/01 01:21:39;;;;;;;43.20;26.20;;;;;;;-2.39;100.00;101608.66;5032820;28;20092;-70
2023/03/01 01:24:05;;;;;;;47.92;29.17;;;;;;;-2.43;100.00;101602.72;5000256;28;20395;-70
2023/03/01 01:26:32;;;;;;;45.40;26.88;;;;;;;-2.43;100.00;101599.16;5000253;28;20034;-70
2023/03/01 01:28:57;;;;;;;45.92;28.05;;;;;;;-2.47;100.00;101607.69;4983797;28;20054;-70
2023/03/01 01:31:23;;;;;;;43.80;27.33;;;;;;;-2.45;100.00;101606.66;5012847;28;20034;-70
2023/03/01 01:33:49;;;;;;;40.38;25.80;;;;;;;-2.44;100.00;101602.91;4997210;28;20049;-71
2023/03/01 01:36:15;;;;;;;41.88;25.77;;;;;;;-2.41;100.00;101608.00;5033025;28;20076;-71
2023/03/01 01:38:42;;;;;;;42.42;26.30;;;;;;;-2.38;100.00;101623.94;5032636;28;20038;-70
2023/03/01 01:41:07;;;;;;;41.38;26.45;;;;;;;-2.42;100.00;101617.16;4999944;28;20042;-70
2023/03/01 01:43:47;;;;;;;46.20;27.05;;;;;;;-2.45;100.00;101609.38;4999891;28;20036;-71
2023/03/01 01:46:18;;;;;;;40.88;25.73;;;;;;;-2.45;100.00;101614.81;4999749;28;20037;-70
2023/03/01 01:48:46;;;;;;;40.03;25.90;;;;;;;-2.55;100.00;101610.47;5017257;28;20399;-70
2023/03/01 01:51:18;;;;;;;42.08;26.80;;;;;;;-2.54;100.00;101612.16;4999425;28;20026;-70
2023/03/01 01:53:45;;;;;;;44.08;26.20;;;;;;;-2.55;100.00;101606.91;5015986;28;20641;-70
2023/03/01 01:56:10;;;;;;;39.40;24.30;;;;;;;-2.52;100.00;101609.25;5015931;28;20034;-70
2023/03/01 01:58:36;;;;;;;40.17;24.33;;;;;;;-2.54;100.00;101614.88;4983083;28;20051;-70
2023/03/01 02:01:02;;;;;;;40.92;24.45;;;;;;;-2.57;100.00;101606.22;4999870;28;20022;-71
2023/03/01 02:03:33;;;;;;;42.58;25.52;;;;;;;-2.53;100.00;101613.84;5032320;28;20030;-70
2023/03/01 02:06:34;;;;;;;42.15;26.17;;;;;;;-2.56;100.00;101602.50;4999935;28;20037;-70
2023/03/01 02:09:03;;;;;;;39.97;24.55;;;;;;;-2.61;100.00;101603.03;4999852;28;20045;-70
2023/03/01 02:11:30;;;;;;;37.92;23.80;;;;;;;-2.64;100.00;101592.50;4983425;28;20030;-70
2023/03/01 02:13:55;;;;;;;36.60;22.65;;;;;;;-2.62;100.00;101593.19;5028053;28;20034;-71
2023/03/01 02:16:21;;;;;;;41.13;25.63;;;;;;;-2.65;100.00;101595.41;5008157;28;20034;-70
2023/03/01 02:18:46;;;;;;;43.88;26.00;;;;;;;-2.73;100.00;101591.72;4999300;28;20083;-71
2023/03/01 02:21:12;;;;;;;39.17;24.67;;;;;;;-2.74;100.00;101592.72;5014240;28;20026;-70
2023/03/01 02:23:37;;;;;;;39.67;23.63;;;;;;;-2.73;100.00;101590.84;5016668;28;20040;-71
2023/03/01 02:26:20;;;;;;;39.88;23.65;;;;;;;-2.72;100.00;101585.25;4999234;28;20575;-70
2023/03/01 02:28:46;;;;;;;34.88;22.27;;;;;;;-2.69;100.00;101581.31;4987949;28;20079;-70
2023/03/01 02:33:58;;;;;;;37.92;22.92;;;;;;;-2.68;100.00;101584.88;5015783;28;20026;-70
2023/03/01 02:36:26;;;;;;;35.35;22.15;;;;;;;-2.68;100.00;101577.56;5014929;28;20621;-70
2023/03/01 02:38:53;;;;;;;35.75;21.42;;;;;;;-2.68;100.00;101583.00;4998737;28;20064;-70
2023/03/01 02:41:19;;;;;;;34.40;21.77;;;;;;;-2.64;100.00;101568.03;5015107;28;20065;-70
2023/03/01 02:43:44;;;;;;;32.67;21.75;;;;;;;-2.75;100.00;101569.31;4998669;28;20041;-70
2023/03/01 02:46:18;;;;;;;36.78;22.63;;;;;;;-2.74;100.00;101568.25;4998413;28;20030;-70
2023/03/01 02:48:48;;;;;;;34.45;22.15;;;;;;;-2.78;100.00;101566.09;4998862;28;20487;-70
2023/03/01 02:51:38;;;;;;;33.03;21.67;;;;;;;-2.80;100.00;101560.00;5011097;28;20026;-70
2023/03/01 02:54:03;;;;;;;35.40;22.63;;;;;;;-2.86;100.00;101561.56;5044910;28;20112;-70
2023/03/01 02:56:29;;;;;;;31.33;20.33;;;;;;;-2.83;100.00;101558.47;5015216;28;20119;-70
2023/03/01 02:58:54;;;;;;;35.75;21.80;;;;;;;-2.87;100.00;101564.44;4982079;28;20029;-71
2023/03/01 03:01:20;;;;;;;32.75;21.08;;;;;;;-2.92;100.00;101563.13;5031185;28;20026;-71
2023/03/01 03:03:46;;;;;;;37.22;22.63;;;;;;;-2.96;100.00;101559.06;5014643;28;20029;-70
2023/03/01 03:06:11;;;;;;;34.70;21.77;;;;;;;-3.02;100.00;101553.50;4997970;28;20033;-70
2023/03/01 03:08:37;;;;;;;43.28;24.85;;;;;;;-3.13;100.00;101546.59;4999776;28;20589;-70
2023/03/01 03:11:02;;;;;;;35.88;21.73;;;;;;;-3.13;100.00;101540.31;4998046;28;20022;-70
2023/03/01 03:13:28;;;;;;;40.92;24.25;;;;;;;-3.19;100.00;101536.44;4996840;28;20112;-70
2023/03/01 03:15:55;;;;;;;40.03;23.90;;;;;;;-3.21;100.00;101530.34;5003162;28;20125;-70
2023/03/01 03:18:20;;;;;;;38.30;24.55;;;;;;;-3.27;100.00;101533.78;4997037;28;20026;-70
2023/03/01 03:20:46;;;;;;;41.03;24.60;;;;;;;-3.30;100.00;101529.53;4981921;28;20037;-70
2023/03/01 03:23:12;;;;;;;43.10;25.95;;;;;;;-3.34;100.00;101528.22;5014199;28;20026;-70
2023/03/01 03:25:37;;;;;;;39.45;23.40;;;;;;;-3.29;100.00;101530.38;4998087;28;20092;-71
2023/03/01 03:28:09;;;;;;;34.00;22.00;;;;;;;-3.27;100.00;101522.91;5013174;28;20034;-71
2023/03/01 03:30:35;;;;;;;39.85;22.90;;;;;;;-3.29;100.00;101525.78;4997711;28;20100;-70
2023/03/01 03:33:01;;;;;;;37.88;23.65;;;;;;;-3.37;100.00;101524.00;4997610;28;20093;-70
2023/03/01 03:35:38;;;;;;;37.75;22.83;;;;;;;-3.33;100.00;101520.91;4997861;28;20497;-70
2023/03/01 03:38:15;;;;;;;38.45;23.92;;;;;;;-3.35;100.00;101520.25;4981451;28;20116;-71
2023/03/01 03:41:02;;;;;;;38.45;22.88;;;;;;;-3.33;100.00;101520.91;5010125;28;20542;-70
2023/03/01 03:43:29;;;;;;;38.92;23.88;;;;;;;-3.34;100.00;101516.50;5023282;28;20046;-70
2023/03/01 03:45:56;;;;;;;36.60;22.42;;;;;;;-3.38;100.00;101516.84;4981617;28;20068;-70
2023/03/01 03:48:22;;;;;;;40.15;24.33;;;;;;;-3.36;100.00;101513.97;4981794;28;20065;-70
2023/03/01 03:50:54;;;;;;;36.67;23.00;;;;;;;-3.38;100.00;101513.28;4997693;28;20021;-70
2023/03/01 03:53:20;;;;;;;40.88;24.33;;;;;;;-3.44;100.00;101511.28;4973037;28;20529;-70
2023/03/01 03:55:48;;;;;;;36.03;22.73;;;;;;;-3.38;100.00;101513.28;4997760;28;20033;-70
2023/03/01 03:58:14;;;;;;;37.47;22.50;;;;;;;-3.40;100.00;101507.19;5014157;28;20078;-71
2023/03/01 04:00:41;;;;;;;40.55;23.90;;;;;;;-3.45;100.00;101504.19;4997795;28;20026;-70
2023/03/01 04:03:07;;;;;;;36.42;22.20;;;;;;;-3.44;100.00;101505.84;4997831;28;20129;-70
2023/03/01 04:05:32;;;;;;;36.95;24.08;;;;;;;-3.47;100.00;101507.06;5015537;28;20061;-70
2023/03/01 04:08:06;;;;;;;44.42;25.42;;;;;;;-3.49;100.00;101514.53;4997542;28;20029;-70
2023/03/01 04:10:45;;;;;;;35.22;23.02;;;;;;;-3.50;100.00;101515.56;4982453;28;20029;-71
2023/03/01 04:13:13;;;;;;;36.85;23.30;;;;;;;-3.54;100.00;101516.91;4997657;28;20463;-71
2023/03/01 04:15:38;;;;;;;42.28;24.20;;;;;;;-3.58;100.00;101517.47;5001334;28;20136;-70
2023/03/01 04:18:05;;;;;;;35.45;22.35;;;;;;;-3.54;100.00;101514.22;4997573;28;20136;-70
2023/03/01 04:20:33;;;;;;;32.80;21.35;;;;;;;-3.52;100.00;101514.88;4981684;28;20033;-70
2023/03/01 04:23:21;;;;;;;37.28;22.45;;;;;;;-3.54;100.00;101514.22;5010621;28;20026;-70
2023/03/01 04:25:54;;;;;;;34.58;21.95;;;;;;;-3.52;100.00;101514.03;5014222;28;20030;-70
2023/03/01 04:28:24;;;;;;;38.40;22.77;;;;;;;-3.55;100.00;101506.25;4997208;28;20033;-70
2023/03/01 04:30:50;;;;;;;34.70;22.05;;;;;;;-3.56;100.00;101510.84;4997139;28;20033;-71
2023/03/01 04:33:15;;;;;;;39.03;23.27;;;;;;;-3.61;100.00;101513.25;5013753;28;20030;-70
2023/03/01 04:35:41;;;;;;;39.40;23.08;;;;;;;-3.61;100.00;101507.81;4997471;28;20363;-70
2023/03/01 04:38:06;;;;;;;38.47;23.65;;;;;;;-3.68;100.00;101504.09;5029746;28;20035;-71
2023/03/01 04:40:32;;;;;;;36.55;22.55;;;;;;;-3.65;100.00;101503.72;5005308;28;20073;-70
2023/03/01 04:42:58;;;;;;;37.55;23.02;;;;;;;-3.69;100.00;101496.97;4980789;28;20048;-70
2023/03/01 04:45:23;;;;;;;39.22;23.70;;;;;;;-3.73;100.00;101498.34;5000992;28;20041;-70
2023/03/01 04:47:49;;;;;;;40.20;23.10;;;;;;;-3.80;100.00;101492.78;5001186;28;20029;-70
2023/03/01 04:50:16;;;;;;;38.00;23.55;;;;;;;-3.79;100.00;101496.34;5017373;28;20030;-70
2023/03/01 04:52:41;;;;;;;46.30;25.35;;;;;;;-3.76;100.00;101494.13;4997516;28;20045;-70
2023/03/01 04:55:07;;;;;;;39.72;24.02;;;;;;;-3.75;100.00;101493.09;5013918;28;20022;-71
2023/03/01 04:57:34;;;;;;;37.28;22.08;;;;;;;-3.66;100.00;101492.03;4999538;28;20026;-70
2023/03/01 04:59:59;;;;;;;40.55;23.75;;;;;;;-3.70;100.00;101484.44;5033753;28;20502;-70
2023/03/01 05:02:25;;;;;;;37.95;23.02;;;;;;;-3.69;100.00;101486.13;5016659;28;20038;-70
2023/03/01 05:04:50;;;;;;;33.95;21.45;;;;;;;-3.70;100.00;101479.00;5013600;28;20030;-70
2023/03/01 05:07:19;;;;;;;38.17;22.65;;;;;;;-3.72;100.00;101481.88;5000278;28;20053;-70
2023/03/01 05:09:47;;;;;;;38.35;24.23;;;;;;;-3.74;100.00;101477.66;5000797;28;20037;-70
2023/03/01 05:12:13;;;;;;;41.88;24.17;;;;;;;-3.74;100.00;101477.66;5016349;28;20450;-70
2023/03/01 05:14:39;;;;;;;37.22;22.80;;;;;;;-3.76;100.00;101485.13;5005682;28;20030;-71
2023/03/01 05:17:05;;;;;;;39.92;23.35;;;;;;;-3.76;100.00;101486.00;5015553;28;20546;-73
2023/03/01 05:19:31;;;;;;;42.53;25.40;;;;;;;-3.77;100.00;101478.00;5000454;28;20044;-73
2023/03/01 05:22:06;;;;;;;40.70;23.77;;;;;;;-3.76;100.00;101487.84;5016479;28;20026;-73
2023/03/01 05:24:33;;;;;;;42.13;23.98;;;;;;;-3.76;100.00;101485.13;5016548;28;20030;-73
2023/03/01 05:26:58;;;;;;;38.55;22.30;;;;;;;-3.73;100.00;101484.75;5000413;28;20030;-73
2023/03/01 05:29:24;;;;;;;40.03;23.83;;;;;;;-3.74;100.00;101485.81;4983886;28;20064;-72
2023/03/01 05:31:54;;;;;;;37.40;21.95;;;;;;;-3.74;100.00;101485.81;4983851;28;20037;-73
2023/03/01 05:34:25;;;;;;;37.20;22.23;;;;;;;-3.70;100.00;101474.41;4983722;28;20510;-71
2023/03/01 05:36:52;;;;;;;38.22;22.45;;;;;;;-3.74;100.00;101483.94;4967879;28;20033;-70
2023/03/01 05:39:21;;;;;;;34.00;22.33;;;;;;;-3.76;100.00;101480.56;5024967;28;20138;-70
2023/03/01 05:41:46;;;;;;;38.65;23.38;;;;;;;-3.79;100.00;101480.03;5013453;28;20061;-70
2023/03/01 05:44:12;;;;;;;39.65;23.27;;;;;;;-3.78;100.00;101481.75;5015040;28;20057;-70
2023/03/01 05:46:37;;;;;;;37.55;22.55;;;;;;;-3.73;100.00;101484.75;4999687;28;20022;-70
2023/03/01 05:49:04;;;;;;;39.00;23.35;;;;;;;-3.70;100.00;101479.00;4983551;28;20046;-70
2023/03/01 05:51:29;;;;;;;37.80;22.45;;;;;;;-3.68;100.00;101487.81;5015835;28;20026;-70
2023/03/01 05:53:55;;;;;;;38.28;23.17;;;;;;;-3.68;100.00;101490.50;5015694;28;20038;-70
2023/03/01 05:56:22;;;;;;;38.78;22.05;;;;;;;-3.66;100.00;101474.91;4999431;28;20026;-70
2023/03/01 05:58:50;;;;;;;42.17;24.27;;;;;;;-3.67;100.00;101470.50;5001460;28;20042;-70
2023/03/01 06:01:16;;;;;;;38.15;22.83;;;;;;;-3.62;100.00;101473.53;4999620;28;20026;-70
2023/03/01 06:03:41;;;;;;;39.90;23.17;;;;;;;-3.62;100.00;101478.97;4983324;28;20030;-70
2023/03/01 06:06:07;;;;;;;37.70;22.73;;;;;;;-3.57;100.00;101473.00;4983091;28;20391;-70
2023/03/01 06:08:32;;;;;;;37.38;22.35;;;;;;;-3.60;100.00;101471.47;4999369;28;20038;-71
2023/03/01 06:10:58;;;;;;;37.53;22.80;;;;;;;-3.59;100.00;101478.63;4983102;28;20136;-70
2023/03/01 06:13:23;;;;;;;37.60;22.23;;;;;;;-3.59;100.00;101475.91;5014761;28;20088;-70
2023/03/01 06:15:49;;;;;;;40.97;24.30;;;;;;;-3.58;100.00;101477.56;5003919;28;20029;-70
2023/03/01 06:18:14;;;;;;;33.13;21.10;;;;;;;-3.58;100.00;101474.03;5032196;28;20037;-70
2023/03/01 06:20:40;;;;;;;33.90;20.90;;;;;;;-3.51;100.00;101473.16;5032133;28;20038;-71
2023/03/01 06:23:05;;;;;;;33.78;20.60;;;;;;;-3.58;100.00;101463.16;5031750;28;20037;-71
2023/03/01 06:25:31;;;;;;;38.47;22.27;;;;;;;-3.60;100.00;101458.72;4982942;28;20037;-71
2023/03/01 06:27:56;;;;;;;46.28;22.30;;;;;;;-3.58;100.00;101458.56;5031874;28;20395;-71
2023/03/01 06:30:22;;;;;;;43.10;22.58;;;;;;;-3.60;100.00;101471.47;5015269;28;20101;-71
2023/03/01 06:32:48;;;;;;;38.83;22.52;;;;;;;-3.55;100.00;101471.78;5015464;28;20080;-72
2023/03/01 06:35:14;;;;;;;40.53;21.98;;;;;;;-3.63;100.00;101472.66;5015428;28;20054;-71
2023/03/01 06:37:40;;;;;;;37.35;20.52;;;;;;;-3.62;100.00;101468.94;4984711;28;20030;-71
2023/03/01 06:40:07;;;;;;;40.85;21.52;;;;;;;-3.66;100.00;101469.47;5018440;28;20052;-71
2023/03/01 06:42:36;;;;;;;36.40;20.73;;;;;;;-3.68;100.00;101468.78;5018725;28;20036;-71
2023/03/01 06:45:02;;;;;;;32.38;20.23;;;;;;;-3.69;100.00;101469.84;5002419;28;20057;-71
2023/03/01 06:47:27;;;;;;;36.28;21.92;;;;;;;-3.73;100.00;101463.03;5002478;28;20038;-71
2023/03/01 06:49:53;;;;;;;35.10;20.42;;;;;;;-3.75;100.00;101473.25;4999172;28;20097;-71
2023/03/01 06:52:18;;;;;;;36.85;21.90;;;;;;;-3.74;100.00;101472.22;4985347;28;20057;-71
2023/03/01 06:54:44;;;;;;;37.35;20.52;;;;;;;-3.72;100.00;101475.63;5003622;28;20085;-71
2023/03/01 06:57:09;;;;;;;34.92;20.90;;;;;;;-3.71;100.00;101478.13;5001833;28;20034;-71
2023/03/01 06:59:35;;;;;;;36.10;20.98;;;;;;;-3.70;100.00;101482.56;5001937;28;20034;-71
2023/03/01 07:02:01;;;;;;;35.17;20.75;;;;;;;-3.74;100.00;101480.38;5001720;28;20057;-71
2023/03/01 07:04:28;;;;;;;35.30;20.90;;;;;;;-3.70;100.00;101485.28;4984996;28;20072;-71
2023/03/01 07:06:55;;;;;;;36.17;20.75;;;;;;;-3.66;100.00;101480.34;5017810;28;20056;-71
2023/03/01 07:09:23;;;;;;;42.72;22.00;;;;;;;-3.69;100.00;101480.69;4969987;28;20029;-71
2023/03/01 07:11:49;;;;;;;39.17;21.70;;;;;;;-3.66;100.00;101486.59;5000143;28;20030;-71
2023/03/01 07:14:15;;;;;;;40.63;22.13;;;;;;;-3.66;100.00;101480.34;4974373;28;20030;-71
2023/03/01 07:16:40;;;;;;;37.72;21.52;;;;;;;-3.59;100.00;101492.19;5025990;28;20040;-71
2023/03/01 07:19:06;;;;;;;40.38;21.95;;;;;;;-3.58;100.00;101483.00;4998220;28;20025;-71
2023/03/01 07:21:31;;;;;;;35.42;20.73;;;;;;;-3.54;100.00;101478.91;4981712;28;20089;-71
2023/03/01 07:23:57;;;;;;;36.60;21.90;;;;;;;-3.51;100.00;101491.28;5014434;28;20034;-71
2023/03/01 07:26:22;;;;;;;42.40;23.00;;;;;;;-3.47;100.00;101481.78;4982056;28;20041;-71
2023/03/01 07:28:48;;;;;;;40.35;23.13;;;;;;;-3.45;100.00;101480.56;4997840;28;20026;-71
2023/03/01 07:31:13;;;;;;;41.85;23.48;;;;;;;-3.39;100.00;101477.13;5025679;28;20039;-71
2023/03/01 07:33:39;;;;;;;40.00;22.27;;;;;;;-3.28;100.00;101480.47;5014217;28;20538;-71
2023/03/01 07:36:05;;;;;;;38.95;22.30;;;;;;;-3.25;100.00;101480.13;5030687;28;20036;-71
2023/03/01 07:38:30;;;;;;;36.03;22.23;;;;;;;-3.19;100.00;101485.66;5027466;28;20030;-71
2023/03/01 07:41:00;;;;;;;41.63;22.35;;;;;;;-3.13;100.00;101484.09;5025333;28;20049;-71
2023/03/01 07:43:27;;;;;;;39.78;22.13;;;;;;;-3.08;100.00;101489.84;4998094;28;20028;-71
2023/03/01 07:45:52;;;;;;;41.55;21.60;;;;;;;-2.98;100.00;101495.91;4981705;28;20037;-71
2023/03/01 07:48:17;;;;;;;39.35;22.27;;;;;;;-2.89;100.00;101493.13;4965534;28;20026;-71
2023/03/01 07:50:43;;;;;;;35.75;21.48;;;;;;;-2.85;100.00;101492.56;4999177;28;20030;-72
2023/03/01 07:53:09;;;;;;;37.75;21.52;;;;;;;-2.79;100.00;101494.53;4981266;28;20045;-71
2023/03/01 07:55:35;;;;;;;39.13;22.45;;;;;;;-2.67;100.00;101486.81;4997907;28;20119;-71
2023/03/01 07:58:00;;;;;;;41.85;21.25;;;;;;;-2.64;100.00;101491.88;4981653;28;20041;-71
2023/03/01 08:00:26;;;;;;;35.63;20.75;;;;;;;-2.57;100.00;101486.56;5030344;28;20022;-71
2023/03/01 08:02:51;;;;;;;36.90;20.83;;;;;;;-2.50;100.00;101488.34;5014234;28;20049;-71
2023/03/01 08:05:17;;;;;;;34.33;21.58;;;;;;;-2.42;100.00;101486.56;4981596;28;20022;-71
2023/03/01 08:07:42;;;;;;;36.60;21.85;;;;;;;-2.38;100.00;101491.47;5030053;28;20057;-71
2023/03/01 08:10:09;;;;;;;34.72;20.80;;;;;;;-2.26;100.00;101490.00;4997383;28;20030;-71
2023/03/01 08:12:34;;;;;;;40.42;21.48;;;;;;;-2.17;100.00;101481.72;4981507;28;20130;-71
2023/03/01 08:15:00;;;;;;;35.70;21.95;;;;;;;-2.06;100.00;101478.56;5000748;28;20026;-71
2023/03/01 08:17:25;;;;;;;36.00;21.73;;;;;;;-2.00;100.00;101476.97;5015845;28;20030;-71
2023/03/01 08:19:51;;;;;;;34.53;20.35;;;;;;;-1.91;100.00;101481.28;5050802;28;20109;-71
2023/03/01 08:22:16;;;;;;;35.47;19.88;;;;;;;-1.80;100.00;101467.19;5034225;28;20026;-71
2023/03/01 08:24:41;;;;;;;41.38;21.42;;;;;;;-1.67;100.00;101472.81;5017970;28;20034;-71
2023/03/01 08:27:07;;;;;;;36.25;21.55;;;;;;;-1.60;100.00;101473.72;5001587;28;20026;-71
2023/03/01 08:29:33;;;;;;;35.35;19.75;;;;;;;-1.51;100.00;101470.91;5015056;28;20037;-71
2023/03/01 08:31:58;;;;;;;33.83;21.08;;;;;;;-1.40;100.00;101471.25;4968282;28;20029;-71
2023/03/01 08:34:24;;;;;;;36.30;19.92;;;;;;;-1.30;100.00;101470.94;5017559;28;20033;-71
2023/03/01 08:36:51;;;;;;;37.25;21.88;;;;;;;-1.22;100.00;101470.00;5000948;28;20033;-71
2023/03/01 08:39:18;;;;;;;36.28;20.42;;;;;;;-1.14;100.00;101465.25;5017163;28;20037;-71
2023/03/01 08:41:43;;;;;;;35.88;20.38;;;;;;;-1.05;100.00;101467.88;5017606;28;20383;-71
2023/03/01 08:44:09;;;;;;;35.67;20.88;;;;;;;-0.93;100.00;101463.56;5017124;28;20026;-71
2023/03/01 08:46:40;;;;;;;37.53;22.55;;;;;;;-0.89;100.00;101467.63;5016920;28;20069;-71
2023/03/01 08:49:16;;;;;;;32.28;20.70;;;;;;;-0.81;100.00;101467.44;5000922;28;20072;-71
2023/03/01 08:51:42;;;;;;;34.53;21.50;;;;;;;-0.68;100.00;101462.13;5016835;28;20120;-72
2023/03/01 08:54:11;;;;;;;38.38;21.45;;;;;;;-0.65;100.00;101460.88;4983844;28;20034;-72
2023/03/01 08:56:36;;;;;;;39.92;21.45;;;;;;;-0.56;100.00;101464.31;4999131;28;20045;-72
2023/03/01 08:59:02;;;;;;;35.83;21.60;;;;;;;-0.48;100.00;101455.97;4997997;28;20438;-73
2023/03/01 09:01:27;;;;;;;35.40;20.15;;;;;;;-0.41;100.00;101465.09;4997226;28;20088;-72
2023/03/01 09:03:53;;;;;;;34.90;20.83;;;;;;;-0.33;100.00;101459.47;4980628;28;20030;-72
2023/03/01 09:06:18;;;;;;;35.67;20.15;;;;;;;-0.18;100.00;101451.16;4984111;28;20064;-72
2023/03/01 09:08:46;;;;;;;34.78;21.63;;;;;;;-0.06;100.00;101457.75;4983483;28;20041;-72
2023/03/01 09:11:15;;;;;;;37.00;21.60;;;;;;;0.01;100.00;101457.81;5016049;28;20030;-73
2023/03/01 09:13:40;;;;;;;31.27;18.50;;;;;;;0.06;100.00;101458.03;4997500;28;20042;-73
2023/03/01 09:16:06;;;;;;;34.63;20.80;;;;;;;0.09;100.00;101460.38;5009311;28;20037;-72
2023/03/01 09:18:32;;;;;;;31.13;18.35;;;;;;;0.16;100.00;101453.03;4984289;28;20356;-72
2023/03/01 09:21:16;;;;;;;32.25;19.23;;;;;;;0.31;100.00;101452.06;5000178;28;20029;-73
2023/03/01 09:23:43;;;;;;;35.00;20.48;;;;;;;0.27;100.00;101461.72;4984303;28;20061;-72
2023/03/01 09:26:11;;;;;;;33.42;21.02;;;;;;;0.26;100.00;101452.69;4997517;28;20484;-73
2023/03/01 09:28:36;;;;;;;38.22;21.40;;;;;;;0.32;100.00;101453.75;4995338;28;20042;-72
2023/03/01 09:31:02;;;;;;;38.08;22.23;;;;;;;0.38;100.00;101448.31;5025492;28;20064;-72
2023/03/01 09:33:31;;;;;;;33.80;20.90;;;;;;;0.44;100.00;101439.28;4983935;28;20892;-73
2023/03/01 09:35:58;;;;;;;33.47;19.90;;;;;;;0.48;100.00;101442.47;5016049;28;20109;-73
2023/03/01 09:38:23;;;;;;;34.85;20.42;;;;;;;0.51;100.00;101439.31;5032327;28;20453;-72
2023/03/01 09:40:49;;;;;;;37.80;21.27;;;;;;;0.53;100.00;101442.72;4998504;28;20057;-72
2023/03/01 09:43:43;;;;;;;39.05;22.23;;;;;;;0.62;100.00;101436.00;5032130;28;20042;-73
2023/03/01 09:46:10;;;;;;;33.80;20.13;;;;;;;0.74;100.00;101435.41;4999508;28;20036;-72
2023/03/01 09:48:56;;;;;;;34.25;20.30;;;;;;;0.83;100.00;101434.16;4999696;28;20553;-73
2023/03/01 09:51:33;;;;;;;29.67;19.15;;;;;;;0.93;100.00;101440.06;5028734;28;20038;-72
2023/03/01 09:54:00;;;;;;;39.50;21.30;;;;;;;1.05;100.00;101445.75;5027228;28;20030;-73
2023/03/01 09:57:00;;;;;;;33.40;20.45;;;;;;;1.07;100.00;101439.03;4999999;28;20449;-72
2023/03/01 09:59:51;;;;;;;29.98;18.10;;;;;;;1.08;100.00;101443.44;5016177;28;20064;-73
2023/03/01 10:02:19;;;;;;;33.75;19.40;;;;;;;1.17;100.00;101432.28;5015699;28;20522;-72
2023/03/01 10:04:46;;;;;;;36.70;18.45;;;;;;;1.30;100.00;101429.56;5015520;28;20041;-72
2023/03/01 10:07:32;;;;;;;29.52;18.27;;;;;;;1.38;100.00;101426.63;5015169;28;20076;-73
2023/03/01 10:10:00;;;;;;;34.38;19.70;;;;;;;1.46;100.00;101428.31;4999154;28;20054;-73
2023/03/01 10:12:27;;;;;;;32.42;19.73;;;;;;;1.42;100.00;101430.66;4999502;28;20060;-73
2023/03/01 10:14:59;;;;;;;30.95;19.55;;;;;;;1.63;100.00;101426.81;4970629;28;20027;-73
2023/03/01 10:17:31;;;;;;;32.35;18.42;;;;;;;1.63;100.00;101426.81;5015629;28;20052;-73
2023/03/01 10:19:57;;;;;;;24.70;15.15;;;;;;;1.67;100.00;101427.22;4993308;28;20030;-73
2023/03/01 10:22:28;;;;;;;29.60;19.45;;;;;;;1.74;100.00;101425.34;4998881;28;20026;-71
2023/03/01 10:24:54;;;;;;;33.30;18.50;;;;;;;1.76;100.00;101417.75;5015194;28;20034;-73
2023/03/01 10:27:33;;;;;;;34.75;19.63;;;;;;;1.78;100.00;101415.63;5015358;28;20033;-72
2023/03/01 10:30:20;;;;;;;32.33;19.95;;;;;;;1.95;100.00;101413.25;5015264;28;20434;-73
2023/03/01 10:32:45;;;;;;;31.55;19.48;;;;;;;2.06;100.00;101406.28;5031322;28;20083;-73
2023/03/01 10:35:29;;;;;;;34.00;19.77;;;;;;;2.05;100.00;101410.94;4997281;28;20034;-73
2023/03/01 10:38:08;;;;;;;34.60;20.65;;;;;;;2.06;100.00;101409.03;5000541;28;20267;-73
2023/03/01 10:40:35;;;;;;;37.50;20.40;;;;;;;2.09;100.00;101403.97;5007168;28;20056;-72
2023/03/01 10:43:04;;;;;;;35.55;20.67;;;;;;;2.16;100.00;101399.28;4998015;28;20034;-73
2023/03/01 10:45:32;;;;;;;32.47;20.33;;;;;;;2.20;100.00;101399.69;4998437;28;20029;-72
2023/03/01 10:48:24;;;;;;;27.85;18.17;;;;;;;2.27;100.00;101384.06;4985912;28;20419;-73
2023/03/01 10:51:12;;;;;;;31.58;19.70;;;;;;;2.30;100.00;101389.13;4998799;28;20102;-73
2023/03/01 10:53:40;;;;;;;33.92;20.60;;;;;;;2.36;100.00;101393.72;4994398;28;20042;-73
2023/03/01 10:56:15;;;;;;;34.13;21.75;;;;;;;2.43;100.00;101394.53;4982735;28;20033;-73
2023/03/01 10:59:02;;;;;;;34.95;19.90;;;;;;;2.47;100.00;101389.44;4982362;28;20034;-72
2023/03/01 11:01:29;;;;;;;34.45;20.58;;;;;;;2.56;100.00;101390.03;5014890;28;20022;-73
2023/03/01 11:04:07;;;;;;;38.13;21.00;;;;;;;2.59;100.00;101390.47;5014623;28;20042;-73
2023/03/01 11:06:36;;;;;;;34.03;20.70;;;;;;;2.64;100.00;101381.53;5014393;28;20072;-72
2023/03/01 11:09:16;;;;;;;34.42;21.30;;;;;;;2.77;100.00;101384.22;4997631;28;20674;-72